Time;durP1;ratioP1;P1;durP2;ratioP2;P2;SDS_P1;SDS_P2;PMS_P1;PMS_P2;Temp;Humidity;BMP_temperature;BMP_pressure;BME280_temperature;BME280_humidity;BME280_pressure;Samples;Min_cycle;Max_cycle;Signal;HPM_P1;HPM_P2
2021/12/21 00:02:15;;;;;;;7.75;4.50;;;;;;;6.19;54.61;100500.70;1771220;107;25921;-74
2021/12/21 00:21:41;;;;;;;8.00;4.97;;;;;;;6.22;54.84;100499.55;1682963;113;25881;-76
2021/12/21 00:25:58;;;;;;;;;;;;;;;;;;;;;
2021/12/21 00:29:58;;;;;;;8.05;5.28;;;;;;;6.23;54.93;100501.31;1746762;111;25818;-82
2021/12/21 00:33:40;;;;;;;;;;;;;;;;;;;;;
2021/12/21 00:37:26;;;;;;;;;;;;;;;;;;;;;
2021/12/21 00:40:37;;;;;;;8.65;4.85;;;;;;;6.24;55.06;100503.07;1730754;111;26020;-79
2021/12/21 00:44:05;;;;;;;6.85;5.22;;;;;;;6.24;55.10;100501.36;1707076;112;26028;-83
2021/12/21 00:47:48;;;;;;;7.12;4.30;;;;;;;6.25;55.16;100504.86;1718578;112;25894;-74
2021/12/21 00:55:29;;;;;;;8.05;4.87;;;;;;;6.23;55.22;100521.61;1690893;114;26046;-75
2021/12/21 00:59:26;;;;;;;9.30;6.17;;;;;;;6.24;55.21;100526.37;1689291;115;26527;-74
2021/12/21 01:07:14;;;;;;;6.47;4.05;;;;;;;6.23;55.25;100524.20;1632944;120;25948;-74
2021/12/21 01:21:18;;;;;;;6.67;5.10;;;;;;;6.22;55.32;100534.08;1682852;116;26071;-77
2021/12/21 01:32:52;;;;;;;7.70;6.40;;;;;;;6.22;55.42;100533.20;1684686;114;26222;-76
2021/12/21 01:52:05;;;;;;;;;;;;;;;;;;;;;
2021/12/21 01:56:10;;;;;;;;;;;;;;;;;;;;;
2021/12/21 01:59:58;;;;;;;6.58;5.25;;;;;;;6.18;55.45;100546.84;1717069;112;25932;-80
2021/12/21 02:03:34;;;;;;;7.10;5.05;;;;;;;6.15;55.41;100537.23;1757385;109;26047;-79
2021/12/21 02:07:20;;;;;;;7.97;5.20;;;;;;;6.15;55.37;100537.23;1931863;83;26202;-76
2021/12/21 02:11:08;;;;;;;5.60;5.03;;;;;;;6.12;55.37;100534.50;2340823;82;25904;-79
2021/12/21 02:19:51;;;;;;;9.13;4.70;;;;;;;6.11;55.37;100546.56;2313778;84;25757;-85
2021/12/21 02:31:46;;;;;;;6.15;4.33;;;;;;;6.07;55.28;100553.69;2172488;89;25892;-80
2021/12/21 02:39:24;;;;;;;5.28;4.65;;;;;;;6.01;55.15;100559.92;2112378;91;25920;-77
2021/12/21 02:43:04;;;;;;;5.62;3.90;;;;;;;6.00;55.08;100561.12;2122514;91;25960;-84
2021/12/21 02:46:52;;;;;;;7.17;4.20;;;;;;;5.97;55.05;100564.45;2118569;91;25860;-77
2021/12/21 02:50:36;;;;;;;6.12;3.80;;;;;;;5.96;54.98;100563.10;2121547;91;25792;-75
2021/12/21 02:54:26;;;;;;;4.45;3.25;;;;;;;5.93;54.94;100563.84;2024958;95;26241;-76
2021/12/21 02:58:51;;;;;;;8.13;4.15;;;;;;;5.91;54.93;100558.58;2041154;95;25990;-77
2021/12/21 03:02:47;;;;;;;8.65;4.80;;;;;;;5.90;54.92;100561.08;2025436;95;25308;-81
2021/12/21 03:14:47;;;;;;;5.87;3.50;;;;;;;5.87;54.87;100583.84;1999670;97;26144;-83
2021/12/21 03:18:26;;;;;;;5.30;3.45;;;;;;;5.87;54.87;100594.58;1988333;96;25873;-82
2021/12/21 03:22:39;;;;;;;6.65;3.42;;;;;;;5.85;54.83;100593.64;2043697;95;26057;-75
2021/12/21 03:26:16;;;;;;;4.97;3.42;;;;;;;5.82;54.80;100593.08;2012179;96;25651;-74
2021/12/21 03:33:53;;;;;;;5.80;3.87;;;;;;;5.82;54.74;100599.97;1954083;100;25823;-76
2021/12/21 03:41:18;;;;;;;4.80;3.90;;;;;;;5.79;54.66;100595.94;2020418;95;26184;-84
2021/12/21 03:45:07;;;;;;;;;;;;;;;;;;;;;
2021/12/21 03:49:50;;;;;;;5.05;3.20;;;;;;;5.78;54.60;100591.59;2013053;95;25868;-77
2021/12/21 03:56:51;;;;;;;4.78;3.08;;;;;;;5.75;54.52;100613.02;2000565;96;25969;-75
2021/12/21 04:05:00;;;;;;;4.45;3.10;;;;;;;5.71;54.47;100622.75;1950166;100;26011;-75
2021/12/21 04:08:27;;;;;;;3.83;2.70;;;;;;;5.71;54.40;100634.81;1943716;99;25821;-75
2021/12/21 04:11:57;;;;;;;4.30;3.12;;;;;;;5.69;54.37;100639.48;1960894;99;25875;-75
2021/12/21 04:15:28;;;;;;;4.35;2.70;;;;;;;5.68;54.37;100638.13;1947405;100;25766;-75
2021/12/21 04:19:11;;;;;;;;;;;;;;;;;;;;;
2021/12/21 04:22:49;;;;;;;2.50;1.95;;;;;;;5.66;54.26;100647.09;1869467;103;26025;-79
2021/12/21 04:26:26;;;;;;;4.85;2.70;;;;;;;5.64;54.22;100660.37;1820502;105;25945;-77
2021/12/21 04:30:39;;;;;;;3.15;2.37;;;;;;;5.63;54.12;100662.46;1819305;106;25847;-75
2021/12/21 04:34:43;;;;;;;3.62;2.10;;;;;;;5.61;54.12;100661.93;1846568;105;25873;-81
2021/12/21 04:42:22;;;;;;;3.35;2.20;;;;;;;5.58;54.06;100678.19;1830250;105;25875;-75
2021/12/21 04:45:59;;;;;;;;;;;;;;;;;;;;;
2021/12/21 04:49:24;;;;;;;2.65;1.92;;;;;;;5.55;53.94;100702.59;1771297;109;25916;-81
2021/12/21 04:52:55;;;;;;;1.98;1.62;;;;;;;5.53;53.87;100700.33;1836095;105;25886;-78
2021/12/21 05:04:13;;;;;;;2.92;2.00;;;;;;;5.47;53.62;100719.83;1951481;99;26006;-77
2021/12/21 05:07:53;;;;;;;2.75;1.80;;;;;;;5.45;53.54;100724.94;1948540;101;32958;-75
2021/12/21 05:11:35;;;;;;;2.27;1.80;;;;;;;5.42;53.41;100729.55;1958041;98;25850;-77
2021/12/21 05:15:04;;;;;;;3.58;1.32;;;;;;;5.40;53.36;100731.56;1991522;96;25781;-75
2021/12/21 05:18:28;;;;;;;3.50;1.87;;;;;;;5.36;53.28;100734.41;1949664;98;26038;-75
2021/12/21 05:21:49;;;;;;;2.40;1.47;;;;;;;5.35;53.26;100737.81;1951871;99;25810;-78
2021/12/21 05:25:20;;;;;;;4.50;1.70;;;;;;;5.34;53.23;100740.34;1944378;99;26047;-76
2021/12/21 05:28:46;;;;;;;4.58;2.05;;;;;;;5.32;53.14;100748.41;1942724;99;25793;-74
2021/12/21 05:32:29;;;;;;;;;;;;;;;;;;;;;
2021/12/21 05:36:00;;;;;;;3.95;1.67;;;;;;;5.29;53.00;100749.54;1907793;96;25811;-74
2021/12/21 05:39:27;;;;;;;3.00;1.55;;;;;;;5.25;52.89;100751.09;2043304;96;26448;-79
2021/12/21 05:42:59;;;;;;;2.65;1.40;;;;;;;5.21;52.79;100766.84;2049472;94;25766;-77
2021/12/21 05:46:36;;;;;;;;;;;;;;;5.17;52.67;100764.92;2080746;94;26017;-75
2021/12/21 05:49:59;;;;;;;1.90;1.42;;;;;;;5.13;52.58;100765.58;2081468;93;25955;-83
2021/12/21 05:53:25;;;;;;;2.33;1.60;;;;;;;5.09;52.47;100774.36;2081021;93;25832;-74
2021/12/21 05:56:46;;;;;;;1.47;1.12;;;;;;;5.04;52.39;100776.72;2112056;91;25971;-81
2021/12/21 06:00:18;;;;;;;1.65;1.30;;;;;;;4.99;52.33;100779.45;2099765;93;25799;-77
2021/12/21 06:04:03;;;;;;;;;;;;;;;;;;;;;
2021/12/21 06:07:21;;;;;;;2.75;1.30;;;;;;;4.92;52.11;100788.98;2272672;86;25626;-75
2021/12/21 06:10:50;;;;;;;2.25;1.30;;;;;;;4.87;52.02;100793.92;2267742;86;25751;-74
2021/12/21 06:29:10;;;;;;;2.10;1.42;;;;;;;4.63;51.48;100807.71;2111268;92;25736;-76
2021/12/21 06:32:56;;;;;;;2.10;0.80;;;;;;;4.60;51.45;100807.95;2112604;92;25888;-78
2021/12/21 06:36:24;;;;;;;3.08;1.55;;;;;;;4.55;51.31;100815.83;2073811;93;25768;-75
2021/12/21 06:40:35;;;;;;;;;;;;;;;;;;;;;
2021/12/21 06:44:00;;;;;;;3.50;1.27;;;;;;;4.48;51.19;100823.64;1970693;98;26390;-79
2021/12/21 06:51:54;;;;;;;1.80;1.22;;;;;;;4.62;58.61;100829.56;1921093;100;25853;-81
2021/12/21 06:55:39;;;;;;;1.87;1.10;;;;;;;4.98;57.37;100832.84;1812431;105;26858;-76
2021/12/21 07:03:13;;;;;;;3.15;1.30;;;;;;;5.17;56.39;100834.70;1863315;103;25881;-76
2021/12/21 07:06:36;;;;;;;9.90;1.85;;;;;;;5.09;55.77;100829.93;1910299;100;25811;-80
2021/12/21 07:10:01;;;;;;;10.53;1.90;;;;;;;5.03;55.64;100838.64;1933134;100;25907;-85
2021/12/21 07:20:52;;;;;;;3.55;2.12;;;;;;;4.93;54.57;100848.92;1935867;100;25957;-77
2021/12/21 07:24:15;;;;;;;4.28;1.90;;;;;;;4.90;54.35;100850.93;1948342;100;25745;-74
2021/12/21 07:27:52;;;;;;;5.65;2.75;;;;;;;4.87;54.05;100843.42;1947572;100;25933;-76
2021/12/21 07:31:19;;;;;;;5.78;2.10;;;;;;;4.86;53.85;100843.83;1954155;97;25769;-76
2021/12/21 07:34:42;;;;;;;3.87;2.50;;;;;;;4.94;54.47;100839.06;2030973;96;25878;-77
2021/12/21 07:38:13;;;;;;;3.62;2.90;;;;;;;6.40;54.55;100843.45;2057821;89;25848;-75
2021/12/21 07:41:37;;;;;;;4.90;3.15;;;;;;;8.21;52.77;100843.23;2209188;86;25824;-83
2021/12/21 07:45:06;;;;;;;6.08;2.87;;;;;;;9.87;51.07;100843.77;2245878;86;25623;-78
2021/12/21 07:48:37;;;;;;;4.15;2.45;;;;;;;11.13;49.31;100855.55;2247649;86;25870;-85
2021/12/21 07:52:10;;;;;;;6.40;3.22;;;;;;;11.94;47.97;100854.30;2289630;85;30542;-76
2021/12/21 07:55:33;;;;;;;5.72;2.45;;;;;;;12.56;47.20;100860.63;2287848;84;25682;-84
2021/12/21 07:59:15;;;;;;;4.83;2.70;;;;;;;12.88;46.44;100865.26;2362492;81;25755;-86
2021/12/21 08:03:05;;;;;;;;;;;;;;;;;;;;;
2021/12/21 08:10:28;;;;;;;4.33;3.37;;;;;;;14.31;45.21;100867.56;2319632;83;25780;-78
2021/12/21 08:14:20;;;;;;;2.17;1.70;;;;;;;15.24;44.50;100870.69;2321662;83;25767;-75
2021/12/21 08:21:45;;;;;;;5.20;2.50;;;;;;;17.76;44.36;100875.68;2241591;86;25364;-81
2021/12/21 08:25:24;;;;;;;6.00;2.77;;;;;;;18.37;43.49;100882.32;1996631;96;25677;-79
2021/12/21 08:28:45;;;;;;;2.65;2.17;;;;;;;18.84;39.84;100877.90;2006698;96;25757;-82
2021/12/21 08:32:22;;;;;;;4.05;2.27;;;;;;;19.09;36.87;100859.75;1989381;96;25764;-82
2021/12/21 08:35:46;;;;;;;3.77;2.42;;;;;;;19.52;34.99;100864.84;1990858;96;25426;-80
2021/12/21 08:39:27;;;;;;;5.12;2.25;;;;;;;20.39;33.08;100866.47;1981396;98;25992;-76
2021/12/21 08:42:53;;;;;;;5.87;2.00;;;;;;;21.30;31.40;100872.58;1882698;102;25879;-77
2021/12/21 08:46:17;;;;;;;2.58;1.90;;;;;;;22.04;29.81;100868.88;1828988;106;25875;-82
2021/12/21 08:49:38;;;;;;;5.80;1.90;;;;;;;22.38;28.61;100866.15;1828324;105;25827;-81
2021/12/21 08:53:09;;;;;;;2.87;1.82;;;;;;;22.56;27.56;100862.73;1842245;105;25948;-77
2021/12/21 08:56:31;;;;;;;8.13;3.08;;;;;;;22.63;26.76;100867.91;1871839;104;25821;-78
2021/12/21 09:00:02;;;;;;;3.40;2.45;;;;;;;23.02;26.08;100867.22;1842105;105;25911;-83
2021/12/21 09:03:24;;;;;;;3.10;2.30;;;;;;;23.54;25.16;100866.11;1904260;101;26015;-78
2021/12/21 09:06:47;;;;;;;4.25;2.72;;;;;;;23.95;24.40;100869.62;1917732;101;25508;-80
2021/12/21 09:10:10;;;;;;;5.67;2.33;;;;;;;24.21;23.66;100862.34;1889832;104;25822;-83
2021/12/21 09:13:32;;;;;;;5.55;2.45;;;;;;;24.27;23.00;100856.41;1878069;103;26556;-82
2021/12/21 09:16:53;;;;;;;7.42;2.60;;;;;;;24.06;22.53;100858.25;1913969;102;25765;-84
2021/12/21 09:20:25;;;;;;;3.20;2.27;;;;;;;23.68;22.04;100854.72;1950655;90;25949;-79
2021/12/21 09:23:57;;;;;;;4.15;3.67;;;;;;;23.31;21.91;100855.50;2123796;89;25820;-83
2021/12/21 09:27:22;;;;;;;12.10;4.58;;;;;;;23.07;21.59;100846.25;2123408;92;25793;-81
2021/12/21 09:30:46;;;;;;;7.47;4.97;;;;;;;22.79;21.27;100851.68;2144716;90;25803;-81
2021/12/21 09:34:21;;;;;;;8.78;5.17;;;;;;;22.55;21.12;100843.72;2151049;90;25835;-80
2021/12/21 09:37:42;;;;;;;6.55;5.92;;;;;;;22.26;20.98;100841.56;2125377;90;25905;-79
2021/12/21 09:41:05;;;;;;;11.18;5.35;;;;;;;21.91;20.90;100835.91;2187249;87;25827;-83
2021/12/21 09:44:35;;;;;;;9.28;4.50;;;;;;;21.59;20.86;100831.08;2269820;85;26673;-79
2021/12/21 09:48:03;;;;;;;9.10;4.08;;;;;;;21.56;20.76;100828.47;2257079;85;25755;-78
2021/12/21 09:51:25;;;;;;;8.97;4.20;;;;;;;21.40;20.59;100827.83;2233307;87;25749;-78
2021/12/21 09:54:48;;;;;;;8.80;3.75;;;;;;;21.17;20.44;100831.20;2214444;87;25715;-84
2021/12/21 09:58:16;;;;;;;5.30;3.95;;;;;;;21.15;20.37;100813.09;2211134;87;25929;-81
2021/12/21 10:01:39;;;;;;;4.70;3.45;;;;;;;21.44;20.10;100813.62;2158415;90;25859;-83
2021/12/21 10:05:07;;;;;;;4.70;3.17;;;;;;;21.37;19.84;100830.97;2162486;89;26082;-80
2021/12/21 10:08:43;;;;;;;6.53;3.77;;;;;;;21.34;19.75;100836.28;2170740;89;25646;-82
2021/12/21 10:12:05;;;;;;;4.45;3.10;;;;;;;21.46;19.59;100838.78;2043788;94;25807;-78
2021/12/21 10:15:40;;;;;;;4.50;3.60;;;;;;;21.73;19.50;100830.87;2029178;94;25595;-79
2021/12/21 10:19:08;;;;;;;6.12;3.77;;;;;;;22.07;19.33;100823.27;2037584;95;25414;-80
2021/12/21 10:22:29;;;;;;;5.77;3.40;;;;;;;22.27;19.12;100818.95;2041338;95;25875;-78
2021/12/21 10:26:12;;;;;;;4.83;3.37;;;;;;;22.20;19.01;100831.05;2037616;95;25903;-83
2021/12/21 10:29:56;;;;;;;7.35;3.12;;;;;;;21.89;18.92;100831.06;2053472;95;26145;-83
2021/12/21 10:33:37;;;;;;;5.22;4.40;;;;;;;21.76;18.92;100844.55;2042709;95;26083;-80
2021/12/21 10:37:15;;;;;;;;;;;;;;;;;;;;;
2021/12/21 10:40:44;;;;;;;4.97;3.70;;;;;;;21.21;19.09;100841.73;2046397;95;25793;-77
2021/12/21 10:44:19;;;;;;;5.03;3.47;;;;;;;20.98;19.11;100839.81;2050003;93;25952;-82
2021/12/21 10:48:15;;;;;;;5.72;3.60;;;;;;;20.93;19.43;100835.03;2065858;93;25787;-76
2021/12/21 10:52:13;;;;;;;3.47;2.80;;;;;;;21.06;19.80;100836.64;2097644;92;25809;-78
2021/12/21 10:56:13;;;;;;;;;;;;;;;;;;;;;
2021/12/21 10:59:53;;;;;;;4.33;3.22;;;;;;;20.45;21.31;100840.81;2172216;89;25760;-78
2021/12/21 11:03:22;;;;;;;3.37;3.08;;;;;;;20.11;22.20;100828.75;2140509;90;25874;-79
2021/12/21 11:11:14;;;;;;;5.58;3.10;;;;;;;18.76;21.84;100820.23;2132041;89;25767;-76
2021/12/21 11:14:38;;;;;;;4.37;3.25;;;;;;;17.97;21.68;100808.88;2131561;90;25783;-76
2021/12/21 11:18:29;;;;;;;;;;;;;;;;;;;;;
2021/12/21 11:21:48;;;;;;;3.83;3.45;;;;;;;17.16;21.82;100816.60;2140628;91;26288;-77
2021/12/21 11:25:20;;;;;;;3.65;3.22;;;;;;;16.81;21.93;100817.34;2110563;90;25809;-76
2021/12/21 11:28:44;;;;;;;3.77;3.22;;;;;;;16.62;21.94;100821.58;2119794;90;26484;-81
2021/12/21 11:32:23;;;;;;;5.10;2.83;;;;;;;16.53;22.04;100818.44;2113271;90;25814;-76
2021/12/21 11:40:04;;;;;;;3.40;3.10;;;;;;;17.23;24.36;100823.20;2124128;90;26073;-76
2021/12/21 11:43:44;;;;;;;4.55;4.15;;;;;;;17.73;24.85;100811.47;2177820;88;25813;-81
2021/12/21 11:47:53;;;;;;;5.30;4.72;;;;;;;18.18;25.07;100808.86;2174478;88;25871;-79
2021/12/21 11:51:27;;;;;;;6.25;4.92;;;;;;;18.22;23.59;100809.73;2153614;90;25740;-84
2021/12/21 11:55:17;;;;;;;5.17;4.58;;;;;;;17.88;22.87;100808.42;2151009;90;25809;-83
2021/12/21 11:59:05;;;;;;;5.05;4.37;;;;;;;17.60;22.60;100803.98;2138768;89;25812;-81
2021/12/21 12:03:04;;;;;;;;;;;;;;;;;;;;;
2021/12/21 12:06:29;;;;;;;4.53;4.05;;;;;;;17.22;22.42;100783.25;2133450;90;25953;-84
2021/12/21 12:10:44;;;;;;;;;;;;;;;;;;;;;
2021/12/21 12:18:54;;;;;;;9.05;4.97;;;;;;;17.12;22.42;100802.54;2067921;94;26126;-89
2021/12/21 12:22:27;;;;;;;;;;;;;;;17.13;22.37;100796.83;2011704;96;26005;-79
2021/12/21 12:26:14;;;;;;;6.37;4.65;;;;;;;17.07;22.35;100796.80;1969916;95;26061;-81
2021/12/21 12:30:10;;;;;;;5.65;4.80;;;;;;;16.64;22.48;100801.86;2081147;93;26093;-81
2021/12/21 12:34:16;;;;;;;6.65;5.08;;;;;;;15.92;22.90;100794.77;2122177;90;25807;-84
2021/12/21 12:38:26;;;;;;;6.60;4.42;;;;;;;15.14;23.32;100791.33;2121208;91;25883;-83
2021/12/21 12:41:50;;;;;;;6.78;4.92;;;;;;;14.26;23.82;100788.82;2101227;90;25817;-81
2021/12/21 12:45:22;;;;;;;11.22;5.53;;;;;;;13.42;24.29;100783.05;2079251;92;25279;-81
2021/12/21 12:49:08;;;;;;;7.03;5.25;;;;;;;12.78;24.83;100780.88;2067124;94;25821;-77
2021/12/21 12:52:50;;;;;;;7.87;5.70;;;;;;;12.14;25.46;100770.73;2053240;95;25845;-79
2021/12/21 12:56:25;;;;;;;10.20;5.53;;;;;;;11.52;25.96;100770.94;1948943;100;26686;-82
2021/12/21 13:00:19;;;;;;;7.75;5.22;;;;;;;11.00;26.62;100773.46;1998625;95;25911;-81
2021/12/21 13:03:49;;;;;;;7.25;5.35;;;;;;;10.57;27.19;100775.24;2022477;96;25768;-77
2021/12/21 13:07:43;;;;;;;6.37;5.72;;;;;;;10.21;27.81;100776.27;2030021;96;25878;-77
2021/12/21 13:11:45;;;;;;;8.20;5.67;;;;;;;9.55;28.71;100766.29;1961658;99;25816;-82
2021/12/21 13:15:16;;;;;;;8.40;5.85;;;;;;;9.55;28.71;100766.29;1963854;97;26095;-79
2021/12/21 13:18:49;;;;;;;10.32;6.65;;;;;;;9.26;29.33;100767.49;1930399;101;26450;-79
2021/12/21 13:22:41;;;;;;;10.28;7.60;;;;;;;8.94;29.86;100771.14;1902494;101;25864;-80
2021/12/21 13:26:23;;;;;;;10.03;7.25;;;;;;;8.63;30.44;100769.09;1860631;104;25932;-81
2021/12/21 13:30:17;;;;;;;7.42;6.60;;;;;;;8.54;31.19;100766.17;1815374;106;25786;-79
2021/12/21 13:33:42;;;;;;;14.60;6.58;;;;;;;8.58;31.55;100760.68;1870060;103;25931;-78
2021/12/21 13:46:03;;;;;;;;;;;;;;;;;;;;;
2021/12/21 13:50:25;;;;;;;;;;;;;;;;;;;;;
2021/12/21 13:54:14;;;;;;;9.60;7.50;;;;;;;8.69;32.54;100787.95;1830507;105;26023;-80
2021/12/21 13:57:45;;;;;;;13.30;7.85;;;;;;;8.77;33.62;100791.70;1824013;105;26557;-87
2021/12/21 14:01:21;;;;;;;16.35;8.78;;;;;;;8.91;34.92;100781.42;1797454;108;26496;-84
2021/12/21 14:05:31;;;;;;;;;;;;;;;;;;;;;
2021/12/21 14:09:20;;;;;;;11.75;8.55;;;;;;;8.86;34.63;100776.88;1827654;105;25939;-82
2021/12/21 14:13:07;;;;;;;10.80;8.58;;;;;;;8.73;34.54;100779.02;1958855;99;26211;-82
2021/12/21 14:16:59;;;;;;;11.93;7.62;;;;;;;8.59;34.55;100775.02;1961551;98;25851;-81
2021/12/21 14:20:55;;;;;;;11.20;7.72;;;;;;;8.44;34.60;100767.95;1972230;96;25820;-83
2021/12/21 14:24:32;;;;;;;;;;;;;;;8.29;34.71;100769.49;2020711;94;26304;-80
2021/12/21 14:29:04;;;;;;;10.78;8.10;;;;;;;8.18;34.84;100764.30;2022416;95;25916;-83
2021/12/21 14:32:42;;;;;;;15.55;8.33;;;;;;;8.02;34.98;100756.31;1983365;96;25753;-83
2021/12/21 14:36:25;;;;;;;9.78;7.67;;;;;;;7.84;35.23;100760.36;1861091;102;26592;-81
2021/12/21 14:40:17;;;;;;;;;;;;;;;;;;;;;
2021/12/21 14:44:37;;;;;;;;;;;;;;;;;;;;;
2021/12/21 14:48:09;;;;;;;13.05;8.48;;;;;;;7.52;35.69;100759.02;2038779;94;26012;-82
2021/12/21 14:51:57;;;;;;;15.08;9.70;;;;;;;7.42;35.95;100758.16;1964913;98;25846;-85
2021/12/21 14:55:35;;;;;;;15.70;8.33;;;;;;;7.33;36.13;100758.26;1953699;99;25829;-81
2021/12/21 15:07:25;;;;;;;;;;;;;;;;;;;;;
2021/12/21 15:10:45;;;;;;;17.73;9.60;;;;;;;6.92;37.01;100752.59;1941156;100;25982;-83
2021/12/21 15:14:29;;;;;;;17.57;9.28;;;;;;;6.84;37.15;100752.64;1910279;100;26097;-84
2021/12/21 15:18:09;;;;;;;11.80;9.15;;;;;;;6.74;37.33;100754.34;1999637;96;26364;-82
2021/12/21 15:21:49;;;;;;;22.00;10.53;;;;;;;6.64;37.53;100751.73;1966766;99;26503;-83
2021/12/21 15:29:44;;;;;;;16.37;10.82;;;;;;;6.50;37.89;100750.23;1977523;98;26120;-82
2021/12/21 15:33:34;;;;;;;14.05;9.68;;;;;;;6.44;38.05;100743.06;1938879;98;25494;-83
2021/12/21 15:37:06;;;;;;;17.67;10.30;;;;;;;6.41;38.23;100744.63;2038856;93;25860;-81
2021/12/21 15:40:42;;;;;;;22.00;11.40;;;;;;;6.38;39.39;100748.87;2059954;94;25931;-82
2021/12/21 15:44:14;;;;;;;22.58;12.03;;;;;;;6.48;39.22;100752.77;2096948;92;26638;-82
2021/12/21 15:47:46;;;;;;;17.32;10.38;;;;;;;6.49;39.23;100747.17;2002034;96;25810;-82
2021/12/21 15:51:14;;;;;;;17.40;9.78;;;;;;;6.45;39.24;100751.33;2007432;95;26053;-82
2021/12/21 15:54:48;;;;;;;16.75;11.12;;;;;;;6.40;39.24;100746.33;1983677;97;26011;-80
2021/12/21 15:58:31;;;;;;;21.73;11.45;;;;;;;6.35;39.30;100745.25;2001383;95;25605;-82
2021/12/21 16:01:54;;;;;;;19.25;11.75;;;;;;;6.30;39.31;100745.02;1913412;99;25961;-81
2021/12/21 16:05:18;;;;;;;22.67;11.33;;;;;;;6.27;39.38;100751.34;1949447;98;25784;-81
2021/12/21 16:08:42;;;;;;;17.57;10.13;;;;;;;6.24;39.48;100746.02;1945525;98;25989;-81
2021/12/21 16:12:33;;;;;;;;;;;;;;;;;;;;;
2021/12/21 16:15:44;;;;;;;13.35;9.15;;;;;;;6.37;45.63;100742.30;1928786;99;25814;-81
2021/12/21 16:19:45;;;;;;;17.80;9.78;;;;;;;7.23;44.92;100752.63;1933630;101;26113;-83
2021/12/21 16:23:22;;;;;;;21.60;10.28;;;;;;;7.23;43.75;100748.31;1925447;101;25406;-83
2021/12/21 16:27:16;;;;;;;20.20;11.00;;;;;;;7.06;43.49;100738.93;1915383;100;26437;-82
2021/12/21 16:31:16;;;;;;;17.70;10.70;;;;;;;6.91;43.29;100751.20;1918968;99;26325;-82
2021/12/21 16:34:59;;;;;;;22.30;11.05;;;;;;;6.73;43.05;100740.92;1937724;100;25568;-83
2021/12/21 16:39:09;;;;;;;18.05;11.28;;;;;;;6.59;42.73;100751.55;1902095;100;26066;-83
2021/12/21 16:42:48;;;;;;;18.62;11.30;;;;;;;6.47;42.58;100739.32;1848905;104;26369;-83
2021/12/21 16:46:33;;;;;;;27.82;12.25;;;;;;;6.34;42.40;100735.27;1855915;102;25835;-83
2021/12/21 16:50:41;;;;;;;21.60;12.65;;;;;;;6.21;42.24;100729.45;1928145;99;26017;-81
2021/12/21 16:58:13;;;;;;;20.08;11.73;;;;;;;6.01;42.19;100734.61;1849713;103;25861;-83
2021/12/21 17:02:13;;;;;;;;;;;;;;;;;;;;;
2021/12/21 17:06:05;;;;;;;19.57;11.03;;;;;;;5.88;42.14;100738.27;1878926;101;25909;-83
2021/12/21 17:10:03;;;;;;;;;;;;;;;;;;;;;
2021/12/21 17:13:48;;;;;;;21.02;10.95;;;;;;;5.73;42.23;100750.45;1873976;102;26069;-83
2021/12/21 17:17:17;;;;;;;20.30;10.88;;;;;;;5.80;44.07;100750.34;1857558;104;26288;-84
2021/12/21 17:21:19;;;;;;;18.50;10.65;;;;;;;5.98;43.74;100751.28;1892460;102;25885;-83
2021/12/21 17:28:22;;;;;;;26.42;11.75;;;;;;;5.89;43.38;100738.74;1989896;97;25909;-83
2021/12/21 17:31:57;;;;;;;21.12;11.18;;;;;;;5.87;43.28;100744.27;2053115;93;25838;-81
2021/12/21 17:35:38;;;;;;;18.82;11.40;;;;;;;5.84;43.19;100740.65;2070548;93;25908;-83
2021/12/21 17:39:24;;;;;;;19.65;11.10;;;;;;;5.80;43.14;100741.28;2107444;91;25880;-84
2021/12/21 17:43:17;;;;;;;18.12;11.03;;;;;;;5.77;43.10;100746.31;2124704;90;25386;-84
2021/12/21 17:46:56;;;;;;;18.67;10.72;;;;;;;5.72;43.05;100745.22;2124507;91;25934;-86
2021/12/21 17:50:30;;;;;;;20.55;10.82;;;;;;;5.67;43.01;100743.71;2133586;90;25534;-82
2021/12/21 17:54:03;;;;;;;20.25;11.40;;;;;;;5.64;43.03;100747.44;2197668;86;25781;-81
2021/12/21 17:57:48;;;;;;;20.72;11.15;;;;;;;5.62;43.02;100751.22;2252029;84;26055;-85
2021/12/21 18:01:18;;;;;;;21.17;11.18;;;;;;;5.59;43.03;100749.78;2326597;83;25907;-83
2021/12/21 18:05:01;;;;;;;15.28;9.83;;;;;;;5.56;43.03;100749.63;2314031;83;25801;-84
2021/12/21 18:08:32;;;;;;;21.37;11.48;;;;;;;5.53;43.04;100746.88;2303089;83;25789;-83
2021/12/21 18:12:20;;;;;;;20.97;11.25;;;;;;;5.51;43.05;100738.59;2328889;83;25378;-83
2021/12/21 18:15:51;;;;;;;17.70;10.00;;;;;;;5.50;43.05;100740.67;2341045;83;26457;-82
2021/12/21 18:19:28;;;;;;;19.65;11.18;;;;;;;5.49;43.08;100740.20;2332340;83;25738;-84
2021/12/21 18:23:08;;;;;;;19.80;10.58;;;;;;;5.45;43.08;100740.45;2320056;83;26465;-84
2021/12/21 18:26:52;;;;;;;21.03;11.03;;;;;;;5.43;43.12;100746.86;2265633;84;26461;-84
2021/12/21 18:30:21;;;;;;;15.78;9.85;;;;;;;5.41;43.14;100745.88;2286662;83;25839;-81
2021/12/21 18:34:16;;;;;;;22.07;10.55;;;;;;;5.39;43.19;100742.73;2316358;83;25792;-83
2021/12/21 18:38:04;;;;;;;21.55;10.40;;;;;;;5.36;43.22;100749.92;2317471;83;26488;-81
2021/12/21 18:41:27;;;;;;;25.77;10.50;;;;;;;5.36;43.24;100751.62;2319665;83;25691;-83
2021/12/21 18:45:08;;;;;;;20.12;10.75;;;;;;;5.35;43.29;100756.32;2286241;85;26382;-81
2021/12/21 18:48:49;;;;;;;15.78;9.28;;;;;;;5.35;43.29;100750.73;2285178;86;25811;-83
2021/12/21 18:52:32;;;;;;;20.75;10.25;;;;;;;5.34;43.32;100758.02;2285729;86;26042;-84
2021/12/21 18:56:03;;;;;;;16.40;10.25;;;;;;;5.33;43.36;100754.97;2280664;86;25388;-85
2021/12/21 19:00:20;;;;;;;14.63;9.78;;;;;;;5.32;43.36;100757.05;2252612;87;25762;-82
2021/12/21 19:03:51;;;;;;;20.60;9.95;;;;;;;5.31;43.39;100760.45;2183104;89;26299;-88
2021/12/21 19:16:08;;;;;;;21.57;10.70;;;;;;;5.29;43.48;100771.52;2124475;91;26789;-88
2021/12/21 19:20:02;;;;;;;17.82;9.38;;;;;;;5.30;43.54;100770.70;2085171;93;25995;-82
2021/12/21 19:23:46;;;;;;;18.60;10.20;;;;;;;5.34;43.53;100767.48;2093884;91;25742;-83
2021/12/21 19:27:52;;;;;;;;;;;;;;;;;;;;;
2021/12/21 19:31:29;;;;;;;19.42;11.03;;;;;;;5.38;43.58;100774.17;2002561;96;25704;-83
2021/12/21 19:39:31;;;;;;;;;;;;;;;;;;;;;
2021/12/21 19:43:11;;;;;;;;;;;;;;;;;;;;;
2021/12/21 19:54:42;;;;;;;;;;;;;;;;;;;;;
2021/12/21 19:58:25;;;;;;;21.12;10.45;;;;;;;7.36;52.38;100786.42;1972502;98;25916;-85
2021/12/21 20:02:17;;;;;;;18.85;9.20;;;;;;;7.29;51.21;100777.53;1974286;98;25761;-87
2021/12/21 20:06:26;;;;;;;18.73;9.35;;;;;;;7.19;51.94;100789.20;2000915;97;25882;-88
2021/12/21 20:14:14;;;;;;;17.07;9.75;;;;;;;7.09;50.70;100790.92;2037985;92;25901;-86
2021/12/21 20:17:52;;;;;;;22.82;10.35;;;;;;;6.92;49.99;100792.76;2062719;93;25404;-89
2021/12/21 20:21:31;;;;;;;17.42;10.58;;;;;;;6.74;49.64;100787.61;1988709;97;25901;-80
2021/12/21 20:25:28;;;;;;;;;;;;;;;;;;;;;
2021/12/21 20:29:14;;;;;;;20.20;11.33;;;;;;;6.48;49.00;100791.62;1881228;102;25846;-80
2021/12/21 20:33:09;;;;;;;;;;;;;;;;;;;;;
2021/12/21 20:41:35;;;;;;;13.48;9.35;;;;;;;6.17;48.53;100801.33;1838895;105;25831;-91
2021/12/21 20:45:19;;;;;;;14.13;10.05;;;;;;;6.08;48.36;100801.79;1907685;100;25789;-84
2021/12/21 20:53:06;;;;;;;;;;;;;;;;;;;;;
2021/12/21 20:56:46;;;;;;;14.53;8.55;;;;;;;5.87;48.06;100815.43;1910990;101;27050;-85
2021/12/21 21:01:07;;;;;;;16.15;9.25;;;;;;;5.84;47.95;100819.56;1936734;100;26129;-85
2021/12/21 21:05:08;;;;;;;15.78;9.83;;;;;;;5.81;47.84;100822.00;1929212;101;25870;-83
2021/12/21 21:13:11;;;;;;;13.80;8.85;;;;;;;5.71;47.57;100827.53;1851716;105;26171;-87
2021/12/21 21:21:37;;;;;;;17.35;9.63;;;;;;;5.66;47.40;100827.27;1930565;100;26614;-84
2021/12/21 21:25:42;;;;;;;10.20;8.20;;;;;;;5.70;47.35;100843.42;1977477;95;25870;-84
2021/12/21 21:29:18;;;;;;;19.32;9.60;;;;;;;5.76;47.34;100840.27;2081062;91;25861;-83
2021/12/21 21:37:24;;;;;;;14.75;8.38;;;;;;;5.85;47.30;100849.38;2040926;92;26169;-83
2021/12/21 21:45:29;;;;;;;12.75;9.18;;;;;;;5.91;47.24;100848.41;2086965;92;25779;-82
2021/12/21 21:57:34;;;;;;;12.37;7.30;;;;;;;6.04;47.19;100847.34;1966522;97;25863;-82
2021/12/21 22:01:40;;;;;;;;;;;;;;;;;;;;;
2021/12/21 22:10:10;;;;;;;;;;;;;;;;;;;;;
2021/12/21 22:19:31;;;;;;;;;;;;;;;;;;;;;
2021/12/21 22:29:28;;;;;;;14.75;7.78;;;;;;;6.19;47.03;100854.08;1828645;103;25849;-86
2021/12/21 22:33:25;;;;;;;13.80;8.13;;;;;;;6.20;47.00;100846.78;1833757;102;25971;-92
2021/12/21 22:37:14;;;;;;;8.65;6.83;;;;;;;6.20;46.99;100845.48;1861846;101;25904;-78
2021/12/21 22:45:16;;;;;;;12.58;6.92;;;;;;;6.22;46.99;100853.82;1934888;98;26082;-83